Time;durP1;ratioP1;P1;durP2;ratioP2;P2;SDS_P1;SDS_P2;PMS_P1;PMS_P2;Temp;Humidity;BMP_temperature;BMP_pressure;BME280_temperature;BME280_humidity;BME280_pressure;Samples;Min_cycle;Max_cycle;Signal;HPM_P1;HPM_P2
2023/07/22 00:01:31;;;;;;;2.50;2.30;;;;;;;16.88;100.00;100191.88;5016309;28;20195;-76
2023/07/22 00:03:57;;;;;;;2.50;2.30;;;;;;;16.86;100.00;100191.13;5021335;28;20199;-76
2023/07/22 00:06:22;;;;;;;2.23;2.03;;;;;;;16.84;100.00;100196.38;5016847;28;20667;-77
2023/07/22 00:08:49;;;;;;;2.63;2.43;;;;;;;16.84;100.00;100199.00;5020681;28;20268;-76
2023/07/22 00:11:14;;;;;;;2.53;2.33;;;;;;;16.84;100.00;100195.53;5019030;28;20198;-77
2023/07/22 00:13:40;;;;;;;2.83;2.63;;;;;;;16.80;100.00;100192.16;5022419;28;20191;-76
2023/07/22 00:16:07;;;;;;;3.83;2.37;;;;;;;16.77;100.00;100195.75;5017262;28;20191;-76
2023/07/22 00:18:33;;;;;;;3.07;2.30;;;;;;;16.72;100.00;100195.06;5022556;28;20203;-77
2023/07/22 00:20:59;;;;;;;2.60;2.40;;;;;;;16.68;100.00;100197.84;5022213;28;20237;-77
2023/07/22 00:23:24;;;;;;;2.43;2.23;;;;;;;16.62;100.00;100204.13;5018946;28;20642;-77
2023/07/22 00:25:50;;;;;;;2.30;2.10;;;;;;;16.55;100.00;100197.44;5017112;28;20773;-77
2023/07/22 00:28:15;;;;;;;3.87;2.50;;;;;;;16.50;100.00;100197.56;5016338;28;20218;-77
2023/07/22 00:30:41;;;;;;;2.43;2.10;;;;;;;16.45;100.00;100187.28;5014679;28;20190;-75
2023/07/22 00:33:07;;;;;;;2.40;2.20;;;;;;;16.41;100.00;100192.69;5013751;28;20570;-77
2023/07/22 00:35:32;;;;;;;2.27;2.07;;;;;;;16.37;100.00;100191.94;5008125;28;20279;-76
2023/07/22 00:37:59;;;;;;;2.50;2.30;;;;;;;16.36;100.00;100191.97;5016916;28;20212;-76
2023/07/22 00:40:24;;;;;;;2.37;2.00;;;;;;;16.34;100.00;100197.28;5025111;28;20181;-77
2023/07/22 00:42:50;;;;;;;2.03;1.93;;;;;;;16.32;100.00;100191.25;5012881;28;20187;-77
2023/07/22 00:45:15;;;;;;;2.77;2.50;;;;;;;16.31;100.00;100189.53;5018674;28;20183;-77
2023/07/22 00:47:41;;;;;;;2.53;2.17;;;;;;;16.29;100.00;100187.00;5017013;28;20239;-76
2023/07/22 00:50:07;;;;;;;2.13;1.93;;;;;;;16.29;100.00;100191.34;5019026;28;20199;-77
2023/07/22 00:52:33;;;;;;;1.93;1.83;;;;;;;16.29;100.00;100186.13;5017381;28;20187;-77
2023/07/22 00:54:59;;;;;;;2.40;2.20;;;;;;;16.28;100.00;100180.06;5017593;28;20199;-76
2023/07/22 00:57:25;;;;;;;2.37;2.17;;;;;;;16.28;100.00;100174.84;5020377;28;20543;-76
2023/07/22 00:59:50;;;;;;;2.50;2.30;;;;;;;16.29;100.00;100183.50;5021479;28;20655;-76
2023/07/22 01:02:16;;;;;;;2.20;2.00;;;;;;;16.28;100.00;100179.19;5015835;28;20202;-77
2023/07/22 01:04:42;;;;;;;2.30;2.10;;;;;;;16.28;100.00;100176.59;5016905;28;20189;-76
2023/07/22 01:07:09;;;;;;;2.43;2.27;;;;;;;16.26;100.00;100178.41;5017451;28;20191;-76
2023/07/22 01:09:40;;;;;;;3.43;2.50;;;;;;;16.24;100.00;100172.41;5013843;28;20240;-77
2023/07/22 01:12:06;;;;;;;2.67;2.47;;;;;;;16.19;100.00;100167.31;5020563;28;20625;-76
2023/07/22 01:14:36;;;;;;;2.90;2.50;;;;;;;16.13;100.00;100168.38;5017351;28;20269;-76
2023/07/22 01:17:04;;;;;;;2.57;2.27;;;;;;;16.09;100.00;100169.41;5018746;28;20313;-76
2023/07/22 01:19:30;;;;;;;2.27;2.07;;;;;;;16.06;100.00;100168.63;5020248;28;20199;-76
2023/07/22 01:21:59;;;;;;;2.50;2.30;;;;;;;16.03;100.00;100173.97;5020730;28;20225;-76
2023/07/22 01:24:24;;;;;;;2.77;2.30;;;;;;;15.97;100.00;100173.25;5017321;28;20175;-76
2023/07/22 01:26:50;;;;;;;2.33;2.13;;;;;;;15.91;100.00;100183.06;5014189;28;20190;-76
2023/07/22 01:29:15;;;;;;;2.40;2.20;;;;;;;15.81;100.00;100174.63;5024503;28;20318;-75
2023/07/22 01:31:41;;;;;;;2.53;2.33;;;;;;;15.71;100.00;100168.84;5008409;28;20668;-76
2023/07/22 01:34:06;;;;;;;2.23;2.03;;;;;;;15.63;100.00;100169.09;5017774;28;20236;-76
2023/07/22 01:36:32;;;;;;;2.70;2.50;;;;;;;15.54;100.00;100170.25;5016054;28;20197;-76
2023/07/22 01:38:57;;;;;;;2.40;2.20;;;;;;;15.50;100.00;100159.97;5020074;28;20209;-77
2023/07/22 01:41:23;;;;;;;2.40;2.20;;;;;;;15.46;100.00;100163.56;5023220;28;20219;-77
2023/07/22 01:43:48;;;;;;;2.60;2.40;;;;;;;15.42;100.00;100155.00;5019343;28;20271;-77
2023/07/22 01:46:14;;;;;;;2.33;2.13;;;;;;;15.42;100.00;100161.97;5010914;28;20198;-77
2023/07/22 01:48:39;;;;;;;2.40;2.20;;;;;;;15.40;100.00;100164.63;5018749;28;20207;-77
2023/07/22 01:51:05;;;;;;;2.80;2.50;;;;;;;15.39;100.00;100165.50;5016625;28;20703;-77
2023/07/22 01:53:30;;;;;;;2.60;2.40;;;;;;;15.37;100.00;100162.09;5013796;28;20327;-77
2023/07/22 01:55:55;;;;;;;2.57;2.37;;;;;;;15.34;100.00;100157.84;5017893;28;20233;-76
2023/07/22 01:58:21;;;;;;;2.37;2.03;;;;;;;15.33;100.00;100160.50;5012421;28;20201;-76
2023/07/22 02:00:50;;;;;;;2.60;2.40;;;;;;;15.29;100.00;100154.50;5015549;28;20182;-76
2023/07/22 02:03:16;;;;;;;2.73;2.53;;;;;;;15.26;100.00;100146.81;5018381;28;20191;-75
2023/07/22 02:05:41;;;;;;;3.07;2.77;;;;;;;15.26;100.00;100153.75;5020154;28;20234;-77
2023/07/22 02:08:06;;;;;;;2.57;2.37;;;;;;;15.23;100.00;100157.31;5013805;28;20214;-75
2023/07/22 02:10:32;;;;;;;2.80;2.60;;;;;;;15.21;100.00;100157.34;5015260;28;20671;-76
2023/07/22 02:12:57;;;;;;;2.50;2.23;;;;;;;15.20;100.00;100150.44;5017594;28;20644;-76
2023/07/22 02:15:24;;;;;;;3.40;3.07;;;;;;;15.20;100.00;100158.25;5015236;28;20292;-76
2023/07/22 02:17:49;;;;;;;2.47;2.27;;;;;;;15.19;100.00;100155.69;5016279;28;20886;-76
2023/07/22 02:20:15;;;;;;;2.50;2.30;;;;;;;15.15;100.00;100160.16;5017054;28;20301;-76
2023/07/22 02:22:40;;;;;;;3.37;2.60;;;;;;;15.10;100.00;100162.03;5018392;28;20190;-76
2023/07/22 02:25:06;;;;;;;2.67;2.43;;;;;;;15.04;100.00;100163.06;5024622;28;20178;-76
2023/07/22 02:27:31;;;;;;;2.67;2.30;;;;;;;14.98;100.00;100170.22;5023905;28;20316;-76
2023/07/22 02:29:57;;;;;;;2.40;2.20;;;;;;;14.90;100.00;100167.84;5017535;28;20321;-76
2023/07/22 02:32:22;;;;;;;2.50;2.27;;;;;;;14.82;100.00;100165.44;5020443;28;20190;-76
2023/07/22 02:34:47;;;;;;;2.27;2.07;;;;;;;14.73;100.00;100171.78;5013984;28;20249;-75
2023/07/22 02:37:13;;;;;;;2.30;2.10;;;;;;;14.68;100.00;100173.63;5021630;28;20195;-75
2023/07/22 02:39:38;;;;;;;3.47;2.50;;;;;;;14.63;100.00;100171.13;5020220;28;20580;-77
2023/07/22 02:42:04;;;;;;;2.43;2.23;;;;;;;14.62;100.00;100166.00;5021456;28;20203;-76
2023/07/22 02:44:29;;;;;;;3.60;2.37;;;;;;;14.63;100.00;100162.50;5021981;28;20188;-76
2023/07/22 02:46:54;;;;;;;3.17;2.40;;;;;;;14.62;100.00;100164.22;5020951;28;20213;-76
2023/07/22 02:49:20;;;;;;;2.77;2.23;;;;;;;14.62;100.00;100159.00;5021801;28;20405;-77
2023/07/22 02:51:45;;;;;;;2.77;2.57;;;;;;;14.61;100.00;100162.50;5023866;28;20187;-76
2023/07/22 02:54:10;;;;;;;2.97;2.67;;;;;;;14.61;100.00;100164.28;5017061;28;20208;-76
2023/07/22 02:56:36;;;;;;;2.63;2.43;;;;;;;14.61;100.00;100161.66;5024357;28;20207;-76
2023/07/22 02:59:01;;;;;;;2.90;2.30;;;;;;;14.61;100.00;100159.91;5020705;28;20215;-77
2023/07/22 03:01:26;;;;;;;2.27;2.07;;;;;;;14.61;100.00;100159.91;5016558;28;20200;-77
2023/07/22 03:03:52;;;;;;;2.43;2.10;;;;;;;14.61;100.00;100164.28;5022017;28;20230;-76
2023/07/22 03:06:17;;;;;;;3.07;2.47;;;;;;;14.61;100.00;100165.13;5017497;28;20194;-76
2023/07/22 03:08:42;;;;;;;2.57;2.17;;;;;;;14.64;100.00;100161.59;5024895;28;20243;-76
2023/07/22 03:11:08;;;;;;;2.43;2.20;;;;;;;14.64;100.00;100167.66;5017355;28;20211;-76
2023/07/22 03:13:34;;;;;;;2.33;2.13;;;;;;;14.64;100.00;100162.44;5016936;28;20248;-76
2023/07/22 03:16:03;;;;;;;2.53;2.33;;;;;;;14.63;100.00;100163.31;5015370;28;20600;-76
2023/07/22 03:18:29;;;;;;;2.73;2.50;;;;;;;14.62;100.00;100163.38;5018539;28;20200;-76
2023/07/22 03:20:54;;;;;;;2.50;2.30;;;;;;;14.60;100.00;100165.16;5023471;28;20198;-77
2023/07/22 03:23:19;;;;;;;3.03;2.70;;;;;;;14.57;100.00;100168.72;5016221;28;20269;-76
2023/07/22 03:25:45;;;;;;;2.73;2.53;;;;;;;14.54;100.00;100163.59;5018734;28;20177;-76
2023/07/22 03:28:11;;;;;;;2.73;2.53;;;;;;;14.54;100.00;100175.75;5018774;28;20307;-76
2023/07/22 03:30:37;;;;;;;3.70;2.73;;;;;;;14.53;100.00;100177.50;5021651;28;20945;-77
2023/07/22 03:33:02;;;;;;;2.67;2.47;;;;;;;14.55;100.00;100182.66;5020411;28;20195;-77
2023/07/22 03:35:28;;;;;;;2.60;2.30;;;;;;;14.51;100.00;100183.66;5023843;28;20877;-76
2023/07/22 03:37:53;;;;;;;3.60;2.80;;;;;;;14.46;100.00;100183.75;5018518;28;20254;-76
2023/07/22 03:40:26;;;;;;;3.03;2.77;;;;;;;14.42;100.00;100190.81;5016616;28;20211;-77
2023/07/22 03:42:53;;;;;;;2.80;2.60;;;;;;;14.35;100.00;100191.88;5018410;28;20724;-75
2023/07/22 03:45:19;;;;;;;3.00;2.53;;;;;;;14.31;100.00;100187.63;5015129;28;20189;-77
2023/07/22 03:47:46;;;;;;;3.20;2.90;;;;;;;14.28;100.00;100191.19;5015131;28;20211;-77
2023/07/22 03:50:11;;;;;;;3.17;2.57;;;;;;;14.28;100.00;100185.97;5015664;28;20571;-76
2023/07/22 03:52:37;;;;;;;2.53;2.33;;;;;;;14.29;100.00;100192.03;5019405;28;20183;-76
2023/07/22 03:55:05;;;;;;;2.63;2.43;;;;;;;14.30;100.00;100181.56;5020062;28;20228;-76
2023/07/22 03:57:30;;;;;;;3.03;2.73;;;;;;;14.33;100.00;100180.66;5014750;28;20280;-77
2023/07/22 03:59:56;;;;;;;2.47;2.27;;;;;;;14.39;100.00;100182.22;5017143;28;20314;-77
2023/07/22 04:02:22;;;;;;;2.80;2.50;;;;;;;14.41;100.00;100178.69;5023620;28;20185;-76
2023/07/22 04:04:48;;;;;;;2.90;2.70;;;;;;;14.44;100.00;100190.78;5013858;28;20191;-76
2023/07/22 04:07:13;;;;;;;3.53;2.57;;;;;;;14.45;100.00;100195.94;5017066;28;20197;-77
2023/07/22 04:09:38;;;;;;;3.10;2.60;;;;;;;14.44;100.00;100199.44;5013975;28;20770;-77
2023/07/22 04:12:04;;;;;;;4.50;2.80;;;;;;;14.46;100.00;100196.78;5019258;28;20314;-78
2023/07/22 04:14:29;;;;;;;2.70;2.47;;;;;;;14.47;100.00;100198.50;5020350;28;20201;-78
2023/07/22 04:16:55;;;;;;;2.87;2.57;;;;;;;14.53;100.00;100189.66;5017685;28;20184;-77
2023/07/22 04:19:20;;;;;;;2.67;2.40;;;;;;;14.57;100.00;100193.91;5020946;28;20703;-78
2023/07/22 04:21:45;;;;;;;3.33;2.60;;;;;;;14.62;100.00;100192.88;5022534;28;20694;-78
2023/07/22 04:24:11;;;;;;;2.57;2.37;;;;;;;14.70;100.00;100195.28;5015763;28;20181;-77
2023/07/22 04:26:36;;;;;;;2.60;2.40;;;;;;;14.76;100.00;100197.75;5019934;28;20659;-77
2023/07/22 04:29:02;;;;;;;2.90;2.53;;;;;;;14.81;100.00;100195.00;5018737;28;20209;-77
2023/07/22 04:31:27;;;;;;;2.40;2.20;;;;;;;14.85;100.00;100190.56;5014388;28;20244;-77
2023/07/22 04:33:53;;;;;;;2.87;2.47;;;;;;;14.88;100.00;100186.13;5017649;28;20184;-77
2023/07/22 04:36:18;;;;;;;3.33;2.13;;;;;;;14.94;100.00;100188.53;5016852;28;20628;-78
2023/07/22 04:38:43;;;;;;;3.87;2.47;;;;;;;15.00;100.00;100192.72;5016567;28;20725;-77
2023/07/22 04:41:08;;;;;;;2.57;2.10;;;;;;;15.09;100.00;100195.09;5020271;28;20188;-78
2023/07/22 04:43:34;;;;;;;2.50;2.20;;;;;;;15.24;100.00;100196.38;5023629;28;20249;-77
2023/07/22 04:45:59;;;;;;;2.30;2.10;;;;;;;15.44;100.00;100204.47;5016805;28;20192;-77
2023/07/22 04:48:25;;;;;;;2.40;2.20;;;;;;;15.67;100.00;100201.16;5017201;28;20217;-77
2023/07/22 04:50:50;;;;;;;2.30;2.10;;;;;;;15.97;100.00;100199.38;5017173;28;20204;-77
2023/07/22 04:53:17;;;;;;;3.07;2.80;;;;;;;16.22;100.00;100201.16;5016957;28;20215;-76
2023/07/22 04:55:43;;;;;;;2.47;2.23;;;;;;;16.40;100.00;100199.69;5017312;28;20971;-77
2023/07/22 04:58:10;;;;;;;2.53;2.33;;;;;;;16.56;100.00;100205.22;5016488;28;20214;-77
2023/07/22 05:00:37;;;;;;;3.07;2.77;;;;;;;16.70;100.00;100209.97;5017243;28;21063;-76
2023/07/22 05:03:02;;;;;;;2.27;2.07;;;;;;;16.77;100.00;100213.22;5017378;28;20184;-77
2023/07/22 05:05:28;;;;;;;2.50;2.30;;;;;;;16.85;100.00;100215.53;5014922;28;20192;-77
2023/07/22 05:07:54;;;;;;;2.60;2.40;;;;;;;16.95;100.00;100216.06;5015996;28;20602;-76
2023/07/22 05:10:19;;;;;;;2.53;2.33;;;;;;;17.09;100.00;100211.22;5016108;28;20531;-77
2023/07/22 05:12:45;;;;;;;2.50;2.27;;;;;;;17.21;100.00;100209.88;5018777;28;20647;-76
2023/07/22 05:15:11;;;;;;;2.40;2.10;;;;;;;17.39;100.00;100212.69;5015166;28;20251;-75
2023/07/22 05:17:37;;;;;;;3.17;2.50;;;;;;;17.66;100.00;100209.00;5017296;28;20191;-76
2023/07/22 05:20:06;;;;;;;3.53;2.63;;;;;;;17.91;100.00;100215.88;5016521;28;20199;-77
2023/07/22 05:22:31;;;;;;;2.83;2.23;;;;;;;18.23;100.00;100215.47;5013979;28;20198;-76
2023/07/22 05:24:57;;;;;;;2.60;2.40;;;;;;;18.68;98.66;100222.28;5016190;28;20176;-76
2023/07/22 05:27:22;;;;;;;2.50;2.30;;;;;;;19.22;96.56;100218.19;5018160;28;20216;-76
2023/07/22 05:29:47;;;;;;;2.50;2.30;;;;;;;19.70;94.42;100223.81;5008692;28;20195;-76
2023/07/22 05:32:13;;;;;;;2.03;1.93;;;;;;;20.23;92.06;100219.50;5016949;28;20195;-76
2023/07/22 05:34:38;;;;;;;5.03;2.40;;;;;;;20.82;89.40;100213.88;5037164;28;20194;-75
2023/07/22 05:37:04;;;;;;;3.10;2.17;;;;;;;21.47;85.21;100221.78;5021538;28;20265;-76
2023/07/22 05:39:29;;;;;;;2.50;2.30;;;;;;;22.00;83.66;100225.91;5024996;28;20235;-77
2023/07/22 05:41:55;;;;;;;3.00;2.40;;;;;;;22.54;81.59;100225.38;5018412;28;20183;-77
2023/07/22 05:44:20;;;;;;;2.13;1.93;;;;;;;23.00;80.02;100229.63;5015361;28;20199;-76
2023/07/22 05:46:46;;;;;;;2.40;2.20;;;;;;;23.22;78.13;100229.16;5014757;28;20191;-77
2023/07/22 05:49:11;;;;;;;2.20;2.00;;;;;;;23.02;78.43;100233.03;5022409;28;20211;-76
2023/07/22 05:51:37;;;;;;;3.77;2.20;;;;;;;22.87;78.07;100229.53;5012614;28;20180;-76
2023/07/22 05:54:02;;;;;;;3.30;2.70;;;;;;;22.58;79.02;100239.25;5012944;28;20199;-77
2023/07/22 05:56:28;;;;;;;2.43;2.23;;;;;;;22.22;79.99;100247.41;5021207;28;20570;-78
2023/07/22 05:58:54;;;;;;;2.57;2.03;;;;;;;21.82;80.66;100236.56;5022447;28;20242;-77
2023/07/22 06:01:19;;;;;;;2.13;1.93;;;;;;;21.48;81.68;100252.41;5028283;28;20183;-77
2023/07/22 06:03:45;;;;;;;2.37;2.17;;;;;;;21.23;82.54;100241.53;5017448;28;20187;-76
2023/07/22 06:06:10;;;;;;;4.20;2.20;;;;;;;21.04;83.72;100244.31;5015076;28;20191;-76
2023/07/22 06:08:36;;;;;;;3.97;2.57;;;;;;;20.82;84.26;100254.19;5019067;28;20215;-75
2023/07/22 06:11:01;;;;;;;3.80;2.57;;;;;;;20.51;85.39;100250.50;5017600;28;20685;-76
2023/07/22 06:13:26;;;;;;;2.80;2.60;;;;;;;20.30;86.50;100252.44;5018542;28;20242;-75
2023/07/22 06:15:52;;;;;;;2.80;2.60;;;;;;;20.19;87.33;100252.13;5020373;28;20222;-76
2023/07/22 06:18:18;;;;;;;2.50;2.07;;;;;;;20.08;88.29;100250.88;5016237;28;20220;-76
2023/07/22 06:20:44;;;;;;;3.00;2.70;;;;;;;20.04;89.30;100249.31;5020498;28;20552;-76
2023/07/22 06:23:09;;;;;;;2.97;2.70;;;;;;;19.93;89.84;100252.50;5022256;28;20201;-76
2023/07/22 06:25:34;;;;;;;2.77;2.47;;;;;;;19.91;90.11;100248.22;5021354;28;20183;-76
2023/07/22 06:28:00;;;;;;;3.20;2.60;;;;;;;19.95;90.53;100236.66;5011860;28;20287;-76
2023/07/22 06:30:25;;;;;;;3.57;2.80;;;;;;;19.94;90.95;100246.31;5016734;28;20564;-76
2023/07/22 06:32:51;;;;;;;2.90;2.60;;;;;;;19.92;90.69;100247.28;5023937;28;20191;-77
2023/07/22 06:35:16;;;;;;;3.10;2.47;;;;;;;20.00;90.43;100245.16;5017998;28;20225;-75
2023/07/22 06:37:41;;;;;;;2.77;2.40;;;;;;;20.10;90.66;100250.81;5025245;28;20755;-77
2023/07/22 06:40:07;;;;;;;3.47;2.63;;;;;;;20.08;90.42;100255.28;5024194;28;20616;-75
2023/07/22 06:42:34;;;;;;;4.53;2.63;;;;;;;20.02;90.31;100251.19;5017196;28;20676;-76
2023/07/22 06:44:59;;;;;;;3.53;2.83;;;;;;;20.07;89.90;100250.97;5018003;28;20270;-76
2023/07/22 06:47:24;;;;;;;3.00;2.70;;;;;;;19.96;89.77;100246.22;5016286;28;20192;-76
2023/07/22 06:49:50;;;;;;;2.53;2.33;;;;;;;20.03;89.74;100252.91;5017195;28;20188;-77
2023/07/22 06:52:16;;;;;;;3.73;2.60;;;;;;;20.17;89.82;100249.56;5018240;28;20801;-76
2023/07/22 06:54:41;;;;;;;3.17;2.70;;;;;;;20.26;89.46;100248.25;5018861;28;20212;-76
2023/07/22 06:57:07;;;;;;;3.40;2.63;;;;;;;20.21;90.06;100255.50;5018244;28;20176;-77
2023/07/22 06:59:32;;;;;;;3.63;2.60;;;;;;;20.35;89.33;100252.22;5009932;28;20305;-76
2023/07/22 07:01:58;;;;;;;3.20;2.90;;;;;;;20.46;88.80;100247.25;5017736;28;20188;-76
2023/07/22 07:04:23;;;;;;;2.93;2.73;;;;;;;20.59;88.13;100250.09;5021723;28;20195;-76
2023/07/22 07:06:50;;;;;;;2.63;2.43;;;;;;;20.74;87.75;100237.94;5022811;28;20191;-78
2023/07/22 07:09:15;;;;;;;2.90;2.60;;;;;;;20.86;86.97;100245.22;5020637;28;20208;-76
2023/07/22 07:11:40;;;;;;;2.97;2.67;;;;;;;21.01;86.43;100247.97;5020020;28;20562;-77
2023/07/22 07:14:06;;;;;;;3.40;2.50;;;;;;;21.43;86.08;100235.19;5016183;28;20367;-76
2023/07/22 07:16:31;;;;;;;2.43;2.17;;;;;;;21.83;85.21;100246.16;5025051;28;20230;-76
2023/07/22 07:18:59;;;;;;;2.50;2.23;;;;;;;22.38;84.02;100235.97;5026385;28;20298;-77
2023/07/22 07:21:24;;;;;;;2.73;2.30;;;;;;;22.80;81.47;100242.25;5018105;28;20214;-77
2023/07/22 07:23:51;;;;;;;2.37;1.90;;;;;;;23.30;79.24;100241.88;5018471;28;20215;-77
2023/07/22 07:26:17;;;;;;;2.37;2.17;;;;;;;24.03;78.08;100240.72;5023034;28;20191;-78
2023/07/22 07:28:42;;;;;;;2.40;2.20;;;;;;;24.05;74.91;100235.31;5019793;28;20699;-77
2023/07/22 07:31:08;;;;;;;2.87;2.33;;;;;;;24.30;74.99;100239.81;5020605;28;20223;-77
2023/07/22 07:33:34;;;;;;;2.60;2.00;;;;;;;24.74;73.78;100243.06;5018870;28;20183;-77
2023/07/22 07:35:59;;;;;;;4.77;2.30;;;;;;;24.95;72.93;100243.38;5018397;28;20207;-76
2023/07/22 07:38:25;;;;;;;2.67;2.33;;;;;;;24.41;72.78;100243.56;5020415;28;20307;-76
2023/07/22 07:40:56;;;;;;;3.30;2.33;;;;;;;24.47;73.28;100235.19;5019358;28;20259;-77
2023/07/22 07:43:21;;;;;;;2.40;2.20;;;;;;;24.32;73.63;100243.22;5023502;28;20202;-76
2023/07/22 07:45:47;;;;;;;2.60;2.40;;;;;;;24.12;73.98;100239.28;5019888;28;20196;-77
2023/07/22 07:48:12;;;;;;;3.83;2.67;;;;;;;23.90;74.80;100250.38;5021049;28;20220;-77
2023/07/22 07:50:37;;;;;;;2.70;2.50;;;;;;;23.60;75.38;100246.16;5015757;28;20227;-77
2023/07/22 07:53:03;;;;;;;2.70;2.50;;;;;;;23.58;75.77;100250.69;5015649;28;20692;-75
2023/07/22 07:55:28;;;;;;;3.40;2.80;;;;;;;23.57;75.50;100244.56;5019730;28;20265;-76
2023/07/22 07:57:53;;;;;;;2.57;2.37;;;;;;;23.77;75.41;100246.84;5019203;28;20212;-77
2023/07/22 08:00:20;;;;;;;2.50;2.30;;;;;;;24.33;74.78;100246.72;5012122;28;20196;-77
2023/07/22 08:02:45;;;;;;;3.13;2.60;;;;;;;24.68;72.75;100245.25;5016590;28;20282;-77
2023/07/22 08:05:12;;;;;;;2.53;2.30;;;;;;;24.83;73.63;100238.06;5017918;28;20956;-76
2023/07/22 08:07:37;;;;;;;2.80;2.50;;;;;;;24.81;71.73;100239.03;5022437;28;20230;-77
2023/07/22 08:10:04;;;;;;;2.83;2.17;;;;;;;25.21;71.82;100243.31;5020413;28;20598;-77
2023/07/22 08:12:30;;;;;;;2.70;2.40;;;;;;;25.43;70.86;100239.16;5020963;28;20179;-77
2023/07/22 08:14:56;;;;;;;3.10;2.67;;;;;;;25.58;70.50;100241.66;5017522;28;20722;-77
2023/07/22 08:17:21;;;;;;;2.28;2.08;;;;;;;26.04;70.37;100240.91;5019407;28;20188;-78
2023/07/22 08:19:47;;;;;;;2.83;1.95;;;;;;;26.59;68.85;100242.97;5019396;28;20196;-77
2023/07/22 08:22:12;;;;;;;2.25;2.00;;;;;;;26.90;67.33;100238.81;5023296;28;20262;-77
2023/07/22 08:24:37;;;;;;;2.63;2.08;;;;;;;26.74;66.75;100236.47;5019440;28;20172;-76
2023/07/22 08:27:03;;;;;;;2.17;1.98;;;;;;;26.40;68.00;100241.72;5017236;28;20216;-77
2023/07/22 08:29:29;;;;;;;2.20;1.90;;;;;;;26.59;67.75;100237.66;5017533;28;20212;-77
2023/07/22 08:31:54;;;;;;;3.67;2.22;;;;;;;26.36;67.42;100234.13;5017162;28;20194;-77
2023/07/22 08:34:19;;;;;;;2.35;2.15;;;;;;;26.45;68.38;100241.41;5017831;28;20228;-77
2023/07/22 08:36:45;;;;;;;4.07;1.92;;;;;;;26.50;68.40;100236.56;5016996;28;20223;-77
2023/07/22 08:39:10;;;;;;;4.22;2.28;;;;;;;26.23;68.15;100237.72;5020202;28;20359;-77
2023/07/22 08:41:36;;;;;;;2.45;2.08;;;;;;;26.36;68.32;100231.47;5021248;28;20725;-77
2023/07/22 08:44:04;;;;;;;4.57;2.28;;;;;;;26.63;67.88;100231.16;5015667;28;20748;-77
2023/07/22 08:46:32;;;;;;;2.00;1.90;;;;;;;26.70;66.34;100227.06;5015270;28;20571;-78
2023/07/22 08:49:00;;;;;;;3.70;2.28;;;;;;;25.80;66.29;100225.00;5017059;28;20241;-78
2023/07/22 08:51:29;;;;;;;2.67;1.92;;;;;;;26.00;67.06;100220.88;5016307;28;20180;-77
2023/07/22 08:53:58;;;;;;;2.03;1.65;;;;;;;26.09;67.30;100220.16;5017643;28;20183;-78
2023/07/22 08:56:25;;;;;;;3.73;2.10;;;;;;;26.23;66.30;100223.63;5013081;28;20210;-78
2023/07/22 08:58:52;;;;;;;2.40;1.90;;;;;;;26.08;66.93;100217.63;5012779;28;20218;-76
2023/07/22 09:01:17;;;;;;;2.63;2.10;;;;;;;26.22;67.15;100228.06;5008365;28;20193;-76
2023/07/22 09:03:43;;;;;;;3.57;2.00;;;;;;;26.35;66.72;100225.34;5013204;28;20188;-76
2023/07/22 09:06:10;;;;;;;2.70;2.00;;;;;;;26.21;66.78;100221.06;5011403;28;20180;-76
2023/07/22 09:08:35;;;;;;;4.50;2.40;;;;;;;26.14;67.58;100225.16;5013947;28;20692;-76
2023/07/22 09:11:01;;;;;;;2.20;2.00;;;;;;;26.08;67.71;100222.94;5011088;28;20199;-77
2023/07/22 09:13:28;;;;;;;2.63;2.00;;;;;;;26.43;66.28;100222.94;5012900;28;20187;-76
2023/07/22 09:15:56;;;;;;;2.30;2.10;;;;;;;26.57;66.03;100223.66;5013041;28;20208;-76
2023/07/22 09:18:21;;;;;;;3.70;2.47;;;;;;;26.68;66.06;100223.69;5012425;28;20219;-76
2023/07/22 09:20:47;;;;;;;2.60;2.00;;;;;;;26.83;67.21;100219.00;5013692;28;21020;-76
2023/07/22 09:23:13;;;;;;;2.70;2.00;;;;;;;26.75;66.39;100221.41;5016390;28;20323;-76
2023/07/22 09:25:40;;;;;;;2.80;1.97;;;;;;;26.66;65.49;100222.97;5012897;28;20191;-77
2023/07/22 09:28:05;;;;;;;4.40;2.20;;;;;;;26.78;65.79;100214.03;5014945;28;20214;-78
2023/07/22 09:30:36;;;;;;;3.40;2.20;;;;;;;26.70;66.01;100210.28;5012387;28;20175;-77
2023/07/22 09:33:03;;;;;;;3.70;2.00;;;;;;;26.75;65.88;100210.78;5016872;28;20207;-76
2023/07/22 09:35:46;;;;;;;2.03;1.83;;;;;;;26.75;65.31;100210.78;5016774;28;20230;-77
2023/07/22 09:38:11;;;;;;;2.70;2.13;;;;;;;26.65;65.27;100200.03;5014671;28;20264;-77
2023/07/22 09:40:40;;;;;;;2.53;2.17;;;;;;;26.64;65.89;100208.97;5016381;28;20614;-77
2023/07/22 09:43:06;;;;;;;2.07;1.90;;;;;;;26.65;65.18;100202.69;5012407;28;20182;-78
2023/07/22 09:45:31;;;;;;;2.67;1.90;;;;;;;26.55;64.78;100210.53;5014005;28;20194;-79
2023/07/22 09:47:58;;;;;;;1.93;1.60;;;;;;;26.14;64.97;100206.59;5011795;28;20212;-77
2023/07/22 09:50:26;;;;;;;2.00;1.73;;;;;;;25.96;65.46;100195.53;5015729;28;20242;-78
2023/07/22 09:52:53;;;;;;;2.17;1.80;;;;;;;26.18;65.42;100202.75;5012980;28;20216;-77
2023/07/22 09:55:21;;;;;;;2.43;2.00;;;;;;;26.32;65.83;100202.53;5013002;28;20216;-77
2023/07/22 09:57:50;;;;;;;2.20;2.00;;;;;;;26.41;65.43;100189.53;5018056;28;20679;-76
2023/07/22 10:00:16;;;;;;;1.80;1.70;;;;;;;26.26;65.27;100184.44;5016004;28;20575;-77
2023/07/22 10:02:43;;;;;;;1.70;1.60;;;;;;;26.27;65.25;100185.28;5016420;28;20213;-77
2023/07/22 10:05:13;;;;;;;2.87;1.67;;;;;;;26.14;65.00;100188.03;5015010;28;20187;-77
2023/07/22 10:07:43;;;;;;;2.07;1.53;;;;;;;26.00;64.83;100187.25;5013756;28;20798;-77
2023/07/22 10:10:10;;;;;;;2.23;1.60;;;;;;;26.26;64.10;100189.75;5014253;28;20531;-76
2023/07/22 10:12:36;;;;;;;2.30;1.60;;;;;;;26.33;63.78;100185.66;5015451;28;20211;-77
2023/07/22 10:15:02;;;;;;;2.00;1.80;;;;;;;26.20;62.75;100194.69;5014022;28;20211;-77
2023/07/22 10:17:29;;;;;;;2.00;1.90;;;;;;;26.28;62.93;100189.63;5017513;28;20242;-76
2023/07/22 10:19:55;;;;;;;1.50;1.40;;;;;;;26.23;63.53;100187.31;5014256;28;20542;-77
2023/07/22 10:22:21;;;;;;;1.83;1.30;;;;;;;26.26;62.77;100183.59;5017380;28;20210;-78
2023/07/22 10:24:48;;;;;;;1.60;1.50;;;;;;;25.91;64.34;100176.50;5018854;28;20203;-77
2023/07/22 10:27:16;;;;;;;3.73;1.90;;;;;;;26.12;65.28;100184.66;5016364;28;20191;-77
2023/07/22 10:29:44;;;;;;;4.20;2.00;;;;;;;26.25;63.82;100185.41;5016465;28;20770;-78
2023/07/22 10:32:10;;;;;;;4.40;2.17;;;;;;;25.83;64.21;100177.06;5014156;28;20230;-76
2023/07/22 10:34:36;;;;;;;3.27;2.23;;;;;;;25.85;64.74;100177.81;5015158;28;20275;-76
2023/07/22 10:37:01;;;;;;;2.93;2.07;;;;;;;26.12;65.06;100174.06;5016747;28;20204;-77
2023/07/22 10:39:28;;;;;;;5.07;2.77;;;;;;;26.42;64.70;100172.66;5014707;28;20211;-77
2023/07/22 10:42:01;;;;;;;2.30;2.10;;;;;;;26.53;63.49;100177.97;5019422;28;20200;-77
2023/07/22 10:44:26;;;;;;;3.70;2.00;;;;;;;26.81;63.53;100177.63;5017581;28;20180;-76
2023/07/22 10:46:59;;;;;;;2.60;1.70;;;;;;;26.87;62.66;100174.47;5019556;28;20190;-77
2023/07/22 10:49:41;;;;;;;3.53;2.17;;;;;;;27.27;62.74;100173.06;5017658;28;20215;-77
2023/07/22 10:52:07;;;;;;;4.20;2.23;;;;;;;27.28;61.51;100159.69;5018857;28;20206;-77
2023/07/22 10:54:36;;;;;;;2.43;1.57;;;;;;;27.35;62.27;100166.16;5017491;28;20227;-77
2023/07/22 10:57:25;;;;;;;2.53;2.13;;;;;;;27.53;62.59;100161.16;5015436;28;20200;-76
2023/07/22 10:59:51;;;;;;;3.60;2.33;;;;;;;27.63;61.46;100168.41;5009163;28;20199;-77
2023/07/22 11:02:27;;;;;;;2.93;2.73;;;;;;;27.52;61.91;100161.31;5018127;28;20211;-77
2023/07/22 11:04:52;;;;;;;1.80;1.70;;;;;;;27.17;62.12;100149.06;5014571;28;20175;-76
2023/07/22 11:07:34;;;;;;;1.80;1.60;;;;;;;26.93;62.07;100160.72;5018676;28;20183;-76
2023/07/22 11:10:16;;;;;;;4.10;1.80;;;;;;;27.01;61.54;100149.47;5015407;28;20266;-76
2023/07/22 11:12:43;;;;;;;7.73;2.47;;;;;;;27.20;60.64;100156.78;5022503;28;20199;-76
2023/07/22 11:15:09;;;;;;;11.13;2.43;;;;;;;27.15;60.12;100146.53;5021436;28;20302;-77
2023/07/22 11:17:34;;;;;;;1.80;1.70;;;;;;;27.33;60.37;100146.03;5015552;28;20184;-77